sensor_id;sensor_type;location;lat;lon;timestamp;temperature;humidity
23143;DHT22;11740;51.168;4.112;2022-08-21T00:02:18;18.60;1.00
23143;DHT22;11740;51.168;4.112;2022-08-21T00:04:47;18.60;1.00
23143;DHT22;11740;51.168;4.112;2022-08-21T00:07:23;18.30;99.90
23143;DHT22;11740;51.168;4.112;2022-08-21T00:09:52;18.20;99.90
23143;DHT22;11740;51.168;4.112;2022-08-21T00:12:22;18.20;94.00
23143;DHT22;11740;51.168;4.112;2022-08-21T00:14:49;18.20;55.00
23143;DHT22;11740;51.168;4.112;2022-08-21T00:17:22;18.30;1.00
23143;DHT22;11740;51.168;4.112;2022-08-21T00:19:49;18.40;1.00
23143;DHT22;11740;51.168;4.112;2022-08-21T00:22:16;18.20;17.70
23143;DHT22;11740;51.168;4.112;2022-08-21T00:24:43;18.10;46.10
23143;DHT22;11740;51.168;4.112;2022-08-21T00:27:10;18.20;1.00
23143;DHT22;11740;51.168;4.112;2022-08-21T00:29:37;18.10;30.00
23143;DHT22;11740;51.168;4.112;2022-08-21T00:32:04;18.10;93.80
23143;DHT22;11740;51.168;4.112;2022-08-21T00:34:31;18.00;99.90
23143;DHT22;11740;51.168;4.112;2022-08-21T00:36:58;18.00;99.90
23143;DHT22;11740;51.168;4.112;2022-08-21T00:39:25;17.90;99.90
23143;DHT22;11740;51.168;4.112;2022-08-21T00:41:52;17.70;99.90
23143;DHT22;11740;51.168;4.112;2022-08-21T00:44:19;17.70;99.90
23143;DHT22;11740;51.168;4.112;2022-08-21T00:46:46;17.70;99.90
23143;DHT22;11740;51.168;4.112;2022-08-21T00:49:13;17.70;99.90
23143;DHT22;11740;51.168;4.112;2022-08-21T00:51:45;17.70;99.90
23143;DHT22;11740;51.168;4.112;2022-08-21T00:54:15;17.60;99.90
23143;DHT22;11740;51.168;4.112;2022-08-21T00:56:48;17.60;99.90
23143;DHT22;11740;51.168;4.112;2022-08-21T00:59:20;17.60;99.90
23143;DHT22;11740;51.168;4.112;2022-08-21T01:01:48;17.60;99.90
23143;DHT22;11740;51.168;4.112;2022-08-21T01:04:16;17.60;99.90
23143;DHT22;11740;51.168;4.112;2022-08-21T01:06:43;17.50;99.90
23143;DHT22;11740;51.168;4.112;2022-08-21T01:09:11;17.50;99.90
23143;DHT22;11740;51.168;4.112;2022-08-21T01:11:38;17.40;1.00
23143;DHT22;11740;51.168;4.112;2022-08-21T01:14:06;17.40;1.00
23143;DHT22;11740;51.168;4.112;2022-08-21T01:16:33;17.40;1.00
23143;DHT22;11740;51.168;4.112;2022-08-21T01:19:00;17.30;1.00
23143;DHT22;11740;51.168;4.112;2022-08-21T01:21:28;17.20;1.00
23143;DHT22;11740;51.168;4.112;2022-08-21T01:23:55;17.10;99.90
23143;DHT22;11740;51.168;4.112;2022-08-21T01:26:28;17.10;99.90
23143;DHT22;11740;51.168;4.112;2022-08-21T01:32:11;17.10;1.00
23143;DHT22;11740;51.168;4.112;2022-08-21T01:34:41;17.10;1.00
23143;DHT22;11740;51.168;4.112;2022-08-21T01:37:09;17.10;1.00
23143;DHT22;11740;51.168;4.112;2022-08-21T01:39:37;17.00;21.60
23143;DHT22;11740;51.168;4.112;2022-08-21T01:42:04;16.90;99.90
23143;DHT22;11740;51.168;4.112;2022-08-21T01:44:33;16.80;99.90
23143;DHT22;11740;51.168;4.112;2022-08-21T01:47:01;16.80;99.90
23143;DHT22;11740;51.168;4.112;2022-08-21T01:49:31;16.80;99.90
23143;DHT22;11740;51.168;4.112;2022-08-21T01:51:58;16.70;1.00
23143;DHT22;11740;51.168;4.112;2022-08-21T01:54:25;16.60;99.90
23143;DHT22;11740;51.168;4.112;2022-08-21T01:56:53;16.60;99.90
23143;DHT22;11740;51.168;4.112;2022-08-21T01:59:22;16.60;99.90
23143;DHT22;11740;51.168;4.112;2022-08-21T02:01:49;16.60;99.90
23143;DHT22;11740;51.168;4.112;2022-08-21T02:04:17;16.70;99.90
23143;DHT22;11740;51.168;4.112;2022-08-21T02:06:43;16.60;99.90
23143;DHT22;11740;51.168;4.112;2022-08-21T02:09:10;16.60;95.70
23143;DHT22;11740;51.168;4.112;2022-08-21T02:11:38;16.50;99.90
23143;DHT22;11740;51.168;4.112;2022-08-21T02:14:10;16.50;99.90
23143;DHT22;11740;51.168;4.112;2022-08-21T02:16:38;16.50;1.00
23143;DHT22;11740;51.168;4.112;2022-08-21T02:19:06;16.40;99.90
23143;DHT22;11740;51.168;4.112;2022-08-21T02:21:32;16.40;1.00
23143;DHT22;11740;51.168;4.112;2022-08-21T02:23:59;16.30;1.00
23143;DHT22;11740;51.168;4.112;2022-08-21T02:26:26;16.20;99.90
23143;DHT22;11740;51.168;4.112;2022-08-21T02:28:53;16.10;1.00
23143;DHT22;11740;51.168;4.112;2022-08-21T02:31:20;16.10;1.00
23143;DHT22;11740;51.168;4.112;2022-08-21T02:33:47;16.10;99.90
23143;DHT22;11740;51.168;4.112;2022-08-21T02:36:14;16.10;99.90
23143;DHT22;11740;51.168;4.112;2022-08-21T02:38:42;16.10;99.90
23143;DHT22;11740;51.168;4.112;2022-08-21T02:41:13;16.10;99.90
23143;DHT22;11740;51.168;4.112;2022-08-21T02:43:41;16.00;1.00
23143;DHT22;11740;51.168;4.112;2022-08-21T02:46:09;16.10;99.90
23143;DHT22;11740;51.168;4.112;2022-08-21T02:48:38;16.00;99.90
23143;DHT22;11740;51.168;4.112;2022-08-21T02:51:07;15.90;1.00
23143;DHT22;11740;51.168;4.112;2022-08-21T02:53:36;15.90;1.00
23143;DHT22;11740;51.168;4.112;2022-08-21T02:56:05;15.90;75.00
23143;DHT22;11740;51.168;4.112;2022-08-21T02:58:35;15.80;99.90
23143;DHT22;11740;51.168;4.112;2022-08-21T03:01:05;15.80;1.00
23143;DHT22;11740;51.168;4.112;2022-08-21T03:03:40;15.80;1.00
23143;DHT22;11740;51.168;4.112;2022-08-21T03:06:09;15.70;1.00
23143;DHT22;11740;51.168;4.112;2022-08-21T03:08:38;15.70;1.00
23143;DHT22;11740;51.168;4.112;2022-08-21T03:11:07;15.70;99.90
23143;DHT22;11740;51.168;4.112;2022-08-21T03:13:36;15.50;1.00
23143;DHT22;11740;51.168;4.112;2022-08-21T03:16:03;15.60;99.90
23143;DHT22;11740;51.168;4.112;2022-08-21T03:18:35;15.60;1.00
23143;DHT22;11740;51.168;4.112;2022-08-21T03:21:03;15.50;99.90
23143;DHT22;11740;51.168;4.112;2022-08-21T03:23:31;15.50;1.00
23143;DHT22;11740;51.168;4.112;2022-08-21T03:25:59;15.50;1.00
23143;DHT22;11740;51.168;4.112;2022-08-21T03:28:26;15.50;99.90
23143;DHT22;11740;51.168;4.112;2022-08-21T03:30:53;15.50;1.00
23143;DHT22;11740;51.168;4.112;2022-08-21T03:33:21;15.40;1.00
23143;DHT22;11740;51.168;4.112;2022-08-21T03:36:07;15.50;99.90
23143;DHT22;11740;51.168;4.112;2022-08-21T03:38:35;15.40;1.00
23143;DHT22;11740;51.168;4.112;2022-08-21T03:41:06;15.40;1.00
23143;DHT22;11740;51.168;4.112;2022-08-21T03:43:34;15.40;1.00
23143;DHT22;11740;51.168;4.112;2022-08-21T03:46:01;15.30;99.90
23143;DHT22;11740;51.168;4.112;2022-08-21T03:48:30;15.10;1.00
23143;DHT22;11740;51.168;4.112;2022-08-21T03:50:58;15.20;99.90
23143;DHT22;11740;51.168;4.112;2022-08-21T03:53:24;15.20;99.90
23143;DHT22;11740;51.168;4.112;2022-08-21T03:55:52;15.20;99.90
23143;DHT22;11740;51.168;4.112;2022-08-21T03:58:20;15.20;1.00
23143;DHT22;11740;51.168;4.112;2022-08-21T04:00:49;15.30;1.00
23143;DHT22;11740;51.168;4.112;2022-08-21T04:03:18;15.20;19.60
23143;DHT22;11740;51.168;4.112;2022-08-21T04:05:49;15.20;1.00
23143;DHT22;11740;51.168;4.112;2022-08-21T04:08:16;15.20;1.00
23143;DHT22;11740;51.168;4.112;2022-08-21T04:10:52;15.10;99.90
23143;DHT22;11740;51.168;4.112;2022-08-21T04:13:23;15.00;99.90
23143;DHT22;11740;51.168;4.112;2022-08-21T04:15:50;15.00;99.90
23143;DHT22;11740;51.168;4.112;2022-08-21T04:18:17;15.00;99.90
23143;DHT22;11740;51.168;4.112;2022-08-21T04:20:45;14.90;1.00
23143;DHT22;11740;51.168;4.112;2022-08-21T04:23:16;14.90;99.90
23143;DHT22;11740;51.168;4.112;2022-08-21T04:25:50;14.90;99.90
23143;DHT22;11740;51.168;4.112;2022-08-21T04:28:17;15.00;99.90
23143;DHT22;11740;51.168;4.112;2022-08-21T04:30:44;14.90;1.00
23143;DHT22;11740;51.168;4.112;2022-08-21T04:33:11;14.80;1.00
23143;DHT22;11740;51.168;4.112;2022-08-21T04:35:38;14.70;13.60
23143;DHT22;11740;51.168;4.112;2022-08-21T04:38:05;14.70;99.90
23143;DHT22;11740;51.168;4.112;2022-08-21T04:40:32;14.70;1.00
23143;DHT22;11740;51.168;4.112;2022-08-21T04:43:04;14.80;1.00
23143;DHT22;11740;51.168;4.112;2022-08-21T04:48:01;14.70;1.00
23143;DHT22;11740;51.168;4.112;2022-08-21T04:53:38;14.70;1.00
23143;DHT22;11740;51.168;4.112;2022-08-21T04:58:53;14.70;1.00
23143;DHT22;11740;51.168;4.112;2022-08-21T05:01:23;14.70;99.90
23143;DHT22;11740;51.168;4.112;2022-08-21T05:03:54;14.60;99.90
23143;DHT22;11740;51.168;4.112;2022-08-21T05:06:23;14.60;1.00
23143;DHT22;11740;51.168;4.112;2022-08-21T05:08:50;14.50;1.00
23143;DHT22;11740;51.168;4.112;2022-08-21T05:11:27;14.60;99.90
23143;DHT22;11740;51.168;4.112;2022-08-21T05:13:55;14.50;99.90
23143;DHT22;11740;51.168;4.112;2022-08-21T05:16:22;14.50;99.90
23143;DHT22;11740;51.168;4.112;2022-08-21T05:19:06;14.60;1.00
23143;DHT22;11740;51.168;4.112;2022-08-21T05:21:34;14.50;1.00
23143;DHT22;11740;51.168;4.112;2022-08-21T05:24:01;14.50;1.00
23143;DHT22;11740;51.168;4.112;2022-08-21T05:26:28;14.50;1.00
23143;DHT22;11740;51.168;4.112;2022-08-21T05:28:56;14.60;1.00
23143;DHT22;11740;51.168;4.112;2022-08-21T05:31:23;14.60;1.00
23143;DHT22;11740;51.168;4.112;2022-08-21T05:33:50;14.60;1.00
23143;DHT22;11740;51.168;4.112;2022-08-21T05:36:18;14.60;99.90
23143;DHT22;11740;51.168;4.112;2022-08-21T05:38:45;14.60;1.00
23143;DHT22;11740;51.168;4.112;2022-08-21T05:41:12;14.60;1.00
23143;DHT22;11740;51.168;4.112;2022-08-21T05:43:39;14.70;1.00
23143;DHT22;11740;51.168;4.112;2022-08-21T05:46:06;14.90;99.90
23143;DHT22;11740;51.168;4.112;2022-08-21T05:48:34;14.80;99.90
23143;DHT22;11740;51.168;4.112;2022-08-21T05:51:06;14.80;1.00
23143;DHT22;11740;51.168;4.112;2022-08-21T05:53:41;14.80;68.60
23143;DHT22;11740;51.168;4.112;2022-08-21T05:56:09;14.80;27.40
23143;DHT22;11740;51.168;4.112;2022-08-21T05:58:37;14.80;99.90
23143;DHT22;11740;51.168;4.112;2022-08-21T06:01:04;14.80;99.90
23143;DHT22;11740;51.168;4.112;2022-08-21T06:03:33;14.80;99.90
23143;DHT22;11740;51.168;4.112;2022-08-21T06:06:02;14.90;99.90
23143;DHT22;11740;51.168;4.112;2022-08-21T06:08:29;14.90;99.90
23143;DHT22;11740;51.168;4.112;2022-08-21T06:10:57;15.00;99.90
23143;DHT22;11740;51.168;4.112;2022-08-21T06:13:25;15.00;99.90
23143;DHT22;11740;51.168;4.112;2022-08-21T06:16:12;15.00;99.90
23143;DHT22;11740;51.168;4.112;2022-08-21T06:18:42;15.10;99.90
23143;DHT22;11740;51.168;4.112;2022-08-21T06:21:10;15.20;99.90
23143;DHT22;11740;51.168;4.112;2022-08-21T06:23:38;15.20;99.90
23143;DHT22;11740;51.168;4.112;2022-08-21T06:26:06;15.20;1.00
23143;DHT22;11740;51.168;4.112;2022-08-21T06:28:34;15.30;99.90
23143;DHT22;11740;51.168;4.112;2022-08-21T06:31:01;15.30;99.90
23143;DHT22;11740;51.168;4.112;2022-08-21T06:33:37;15.40;1.00
23143;DHT22;11740;51.168;4.112;2022-08-21T06:36:04;15.50;1.00
23143;DHT22;11740;51.168;4.112;2022-08-21T06:38:32;15.50;1.00
23143;DHT22;11740;51.168;4.112;2022-08-21T06:40:59;15.50;99.90
23143;DHT22;11740;51.168;4.112;2022-08-21T06:43:29;15.50;1.00
23143;DHT22;11740;51.168;4.112;2022-08-21T06:46:06;15.60;1.00
23143;DHT22;11740;51.168;4.112;2022-08-21T06:48:34;15.70;1.00
23143;DHT22;11740;51.168;4.112;2022-08-21T06:51:01;15.70;1.00
23143;DHT22;11740;51.168;4.112;2022-08-21T06:53:28;15.80;1.00
23143;DHT22;11740;51.168;4.112;2022-08-21T06:55:55;15.80;99.90
23143;DHT22;11740;51.168;4.112;2022-08-21T06:58:21;15.90;1.00
23143;DHT22;11740;51.168;4.112;2022-08-21T07:00:49;16.00;1.00
23143;DHT22;11740;51.168;4.112;2022-08-21T07:03:18;16.00;1.00
23143;DHT22;11740;51.168;4.112;2022-08-21T07:05:47;16.10;1.00
23143;DHT22;11740;51.168;4.112;2022-08-21T07:08:15;16.20;1.00
23143;DHT22;11740;51.168;4.112;2022-08-21T07:10:43;16.20;1.00
23143;DHT22;11740;51.168;4.112;2022-08-21T07:13:10;16.20;1.00
23143;DHT22;11740;51.168;4.112;2022-08-21T07:15:37;16.20;1.00
23143;DHT22;11740;51.168;4.112;2022-08-21T07:18:04;16.30;1.00
23143;DHT22;11740;51.168;4.112;2022-08-21T07:20:31;16.40;1.00
23143;DHT22;11740;51.168;4.112;2022-08-21T07:22:59;16.50;99.90
23143;DHT22;11740;51.168;4.112;2022-08-21T07:25:28;16.40;1.00
23143;DHT22;11740;51.168;4.112;2022-08-21T07:27:55;16.50;99.90
23143;DHT22;11740;51.168;4.112;2022-08-21T07:30:22;16.60;1.00
23143;DHT22;11740;51.168;4.112;2022-08-21T07:32:49;16.70;1.00
23143;DHT22;11740;51.168;4.112;2022-08-21T07:35:17;16.80;99.90
23143;DHT22;11740;51.168;4.112;2022-08-21T07:37:45;16.80;99.90
23143;DHT22;11740;51.168;4.112;2022-08-21T07:40:12;16.90;99.90
23143;DHT22;11740;51.168;4.112;2022-08-21T07:42:40;17.00;95.00
23143;DHT22;11740;51.168;4.112;2022-08-21T07:45:08;17.00;99.90
23143;DHT22;11740;51.168;4.112;2022-08-21T07:47:36;17.10;99.90
23143;DHT22;11740;51.168;4.112;2022-08-21T07:50:09;17.20;99.90
23143;DHT22;11740;51.168;4.112;2022-08-21T07:52:38;17.30;99.90
23143;DHT22;11740;51.168;4.112;2022-08-21T07:55:06;17.30;11.00
23143;DHT22;11740;51.168;4.112;2022-08-21T07:57:35;17.40;46.60
23143;DHT22;11740;51.168;4.112;2022-08-21T08:00:03;17.50;99.90
23143;DHT22;11740;51.168;4.112;2022-08-21T08:02:31;17.60;99.90
23143;DHT22;11740;51.168;4.112;2022-08-21T08:04:59;17.70;99.90
23143;DHT22;11740;51.168;4.112;2022-08-21T08:07:30;17.70;1.00
23143;DHT22;11740;51.168;4.112;2022-08-21T08:09:57;17.70;1.00
23143;DHT22;11740;51.168;4.112;2022-08-21T08:12:25;17.60;16.90
23143;DHT22;11740;51.168;4.112;2022-08-21T08:14:56;17.80;1.00
23143;DHT22;11740;51.168;4.112;2022-08-21T08:17:24;17.70;1.00
23143;DHT22;11740;51.168;4.112;2022-08-21T08:19:52;17.80;1.00
23143;DHT22;11740;51.168;4.112;2022-08-21T08:22:21;17.80;1.00
23143;DHT22;11740;51.168;4.112;2022-08-21T08:24:50;17.80;1.00
23143;DHT22;11740;51.168;4.112;2022-08-21T08:27:18;18.00;1.00
23143;DHT22;11740;51.168;4.112;2022-08-21T08:29:47;18.10;99.90
23143;DHT22;11740;51.168;4.112;2022-08-21T08:32:15;18.20;99.90
23143;DHT22;11740;51.168;4.112;2022-08-21T08:34:42;18.30;99.90
23143;DHT22;11740;51.168;4.112;2022-08-21T08:37:09;18.40;99.90
23143;DHT22;11740;51.168;4.112;2022-08-21T08:39:37;18.70;99.90
23143;DHT22;11740;51.168;4.112;2022-08-21T08:42:06;18.90;1.00
23143;DHT22;11740;51.168;4.112;2022-08-21T08:45:10;19.00;1.00
23143;DHT22;11740;51.168;4.112;2022-08-21T08:47:40;19.30;99.90
23143;DHT22;11740;51.168;4.112;2022-08-21T08:53:15;19.40;1.00
23143;DHT22;11740;51.168;4.112;2022-08-21T08:55:46;19.50;1.00
23143;DHT22;11740;51.168;4.112;2022-08-21T08:58:28;19.60;30.00
23143;DHT22;11740;51.168;4.112;2022-08-21T09:00:58;19.60;16.00
23143;DHT22;11740;51.168;4.112;2022-08-21T09:03:26;19.60;54.40
23143;DHT22;11740;51.168;4.112;2022-08-21T09:14:32;19.80;1.00
23143;DHT22;11740;51.168;4.112;2022-08-21T09:17:25;19.70;1.00
23143;DHT22;11740;51.168;4.112;2022-08-21T09:20:08;19.70;99.90
23143;DHT22;11740;51.168;4.112;2022-08-21T09:25:21;19.90;99.90
23143;DHT22;11740;51.168;4.112;2022-08-21T09:27:51;19.90;99.90
23143;DHT22;11740;51.168;4.112;2022-08-21T09:30:19;19.90;99.90
23143;DHT22;11740;51.168;4.112;2022-08-21T09:32:53;19.90;99.90
23143;DHT22;11740;51.168;4.112;2022-08-21T09:35:21;19.90;60.10
23143;DHT22;11740;51.168;4.112;2022-08-21T09:37:59;19.80;99.90
23143;DHT22;11740;51.168;4.112;2022-08-21T09:40:45;19.80;99.90
23143;DHT22;11740;51.168;4.112;2022-08-21T09:45:41;19.80;99.90
23143;DHT22;11740;51.168;4.112;2022-08-21T09:48:12;19.90;99.90
23143;DHT22;11740;51.168;4.112;2022-08-21T09:50:40;20.00;99.90
23143;DHT22;11740;51.168;4.112;2022-08-21T09:53:18;20.20;99.90
23143;DHT22;11740;51.168;4.112;2022-08-21T09:55:57;20.40;1.00
23143;DHT22;11740;51.168;4.112;2022-08-21T09:58:49;20.60;1.00
23143;DHT22;11740;51.168;4.112;2022-08-21T10:01:19;20.70;1.00
23143;DHT22;11740;51.168;4.112;2022-08-21T10:06:54;20.70;1.00
23143;DHT22;11740;51.168;4.112;2022-08-21T10:09:23;20.70;99.90
23143;DHT22;11740;51.168;4.112;2022-08-21T10:17:51;20.80;99.90
23143;DHT22;11740;51.168;4.112;2022-08-21T10:20:23;20.90;99.90
23143;DHT22;11740;51.168;4.112;2022-08-21T10:25:33;21.10;1.00
23143;DHT22;11740;51.168;4.112;2022-08-21T10:31:17;21.10;1.00
23143;DHT22;11740;51.168;4.112;2022-08-21T10:34:31;21.30;1.00
23143;DHT22;11740;51.168;4.112;2022-08-21T10:48:53;21.60;1.00
23143;DHT22;11740;51.168;4.112;2022-08-21T10:54:31;21.90;1.00
23143;DHT22;11740;51.168;4.112;2022-08-21T10:57:33;21.90;99.90
23143;DHT22;11740;51.168;4.112;2022-08-21T11:00:07;22.10;1.00
23143;DHT22;11740;51.168;4.112;2022-08-21T11:02:51;22.10;99.90
23143;DHT22;11740;51.168;4.112;2022-08-21T11:05:33;22.10;37.50
23143;DHT22;11740;51.168;4.112;2022-08-21T11:08:35;22.10;99.90
23143;DHT22;11740;51.168;4.112;2022-08-21T11:13:47;22.10;99.90
23143;DHT22;11740;51.168;4.112;2022-08-21T11:19:15;22.30;1.00
23143;DHT22;11740;51.168;4.112;2022-08-21T11:21:47;22.40;1.00
23143;DHT22;11740;51.168;4.112;2022-08-21T11:29:58;22.80;99.90
23143;DHT22;11740;51.168;4.112;2022-08-21T11:43:12;23.60;1.00
23143;DHT22;11740;51.168;4.112;2022-08-21T11:45:49;23.70;99.90
23143;DHT22;11740;51.168;4.112;2022-08-21T11:51:16;23.80;99.90
23143;DHT22;11740;51.168;4.112;2022-08-21T11:53:50;23.90;99.90
23143;DHT22;11740;51.168;4.112;2022-08-21T11:56:45;24.00;99.90
23143;DHT22;11740;51.168;4.112;2022-08-21T11:59:17;24.10;99.90
23143;DHT22;11740;51.168;4.112;2022-08-21T12:01:50;24.10;99.90
23143;DHT22;11740;51.168;4.112;2022-08-21T12:04:22;24.20;1.00
23143;DHT22;11740;51.168;4.112;2022-08-21T12:06:55;24.10;1.00
23143;DHT22;11740;51.168;4.112;2022-08-21T12:14:51;24.40;1.00
23143;DHT22;11740;51.168;4.112;2022-08-21T12:17:53;24.30;1.00
23143;DHT22;11740;51.168;4.112;2022-08-21T12:23:31;24.40;1.00
23143;DHT22;11740;51.168;4.112;2022-08-21T12:26:11;24.30;1.00
23143;DHT22;11740;51.168;4.112;2022-08-21T12:28:44;24.30;1.00
23143;DHT22;11740;51.168;4.112;2022-08-21T12:31:23;24.40;5.20
23143;DHT22;11740;51.168;4.112;2022-08-21T12:34:08;24.40;1.00
23143;DHT22;11740;51.168;4.112;2022-08-21T12:36:42;24.50;1.00
23143;DHT22;11740;51.168;4.112;2022-08-21T12:39:12;24.50;1.00
23143;DHT22;11740;51.168;4.112;2022-08-21T12:41:50;24.80;1.00
23143;DHT22;11740;51.168;4.112;2022-08-21T12:44:37;24.80;1.00
23143;DHT22;11740;51.168;4.112;2022-08-21T12:49:55;25.00;1.00
23143;DHT22;11740;51.168;4.112;2022-08-21T12:52:41;25.10;1.00
23143;DHT22;11740;51.168;4.112;2022-08-21T12:55:13;25.30;1.00
23143;DHT22;11740;51.168;4.112;2022-08-21T12:57:42;25.30;1.00
23143;DHT22;11740;51.168;4.112;2022-08-21T13:00:10;25.50;1.00
23143;DHT22;11740;51.168;4.112;2022-08-21T13:02:42;25.30;1.00
23143;DHT22;11740;51.168;4.112;2022-08-21T13:05:12;25.20;1.00
23143;DHT22;11740;51.168;4.112;2022-08-21T13:07:51;25.10;1.00
23143;DHT22;11740;51.168;4.112;2022-08-21T13:10:22;25.20;1.00
23143;DHT22;11740;51.168;4.112;2022-08-21T13:12:59;25.30;1.00
23143;DHT22;11740;51.168;4.112;2022-08-21T13:15:39;25.30;1.00
23143;DHT22;11740;51.168;4.112;2022-08-21T13:18:23;25.30;1.00
23143;DHT22;11740;51.168;4.112;2022-08-21T13:21:02;25.40;1.00
23143;DHT22;11740;51.168;4.112;2022-08-21T13:23:34;25.50;1.00
23143;DHT22;11740;51.168;4.112;2022-08-21T13:26:02;25.50;1.00
23143;DHT22;11740;51.168;4.112;2022-08-21T13:28:44;25.60;1.00
23143;DHT22;11740;51.168;4.112;2022-08-21T13:31:18;25.60;1.00
23143;DHT22;11740;51.168;4.112;2022-08-21T13:33:47;25.60;1.00
23143;DHT22;11740;51.168;4.112;2022-08-21T13:36:17;25.60;1.00
23143;DHT22;11740;51.168;4.112;2022-08-21T13:38:47;25.50;1.00
23143;DHT22;11740;51.168;4.112;2022-08-21T13:41:21;25.30;99.90
23143;DHT22;11740;51.168;4.112;2022-08-21T13:43:57;25.50;99.90
23143;DHT22;11740;51.168;4.112;2022-08-21T13:46:26;25.90;1.00
23143;DHT22;11740;51.168;4.112;2022-08-21T13:48:58;26.10;1.00
23143;DHT22;11740;51.168;4.112;2022-08-21T13:51:26;26.20;99.90
23143;DHT22;11740;51.168;4.112;2022-08-21T13:53:54;26.40;99.90
23143;DHT22;11740;51.168;4.112;2022-08-21T13:58:52;26.50;99.90
23143;DHT22;11740;51.168;4.112;2022-08-21T14:01:22;26.50;99.90
23143;DHT22;11740;51.168;4.112;2022-08-21T14:04:16;26.60;99.90
23143;DHT22;11740;51.168;4.112;2022-08-21T14:06:46;26.60;99.90
23143;DHT22;11740;51.168;4.112;2022-08-21T14:09:24;26.50;99.90
23143;DHT22;11740;51.168;4.112;2022-08-21T14:11:55;26.60;99.90
23143;DHT22;11740;51.168;4.112;2022-08-21T14:14:24;26.70;99.90
23143;DHT22;11740;51.168;4.112;2022-08-21T14:16:55;26.70;99.90
23143;DHT22;11740;51.168;4.112;2022-08-21T14:19:46;26.80;99.90
23143;DHT22;11740;51.168;4.112;2022-08-21T14:25:09;27.10;99.90
23143;DHT22;11740;51.168;4.112;2022-08-21T14:27:39;27.00;99.90
23143;DHT22;11740;51.168;4.112;2022-08-21T14:30:11;27.00;99.90
23143;DHT22;11740;51.168;4.112;2022-08-21T14:32:43;27.00;99.90
23143;DHT22;11740;51.168;4.112;2022-08-21T14:35:13;27.00;99.90
23143;DHT22;11740;51.168;4.112;2022-08-21T14:37:41;27.00;99.90
23143;DHT22;11740;51.168;4.112;2022-08-21T14:40:08;27.10;99.90
23143;DHT22;11740;51.168;4.112;2022-08-21T14:42:36;27.20;99.90
23143;DHT22;11740;51.168;4.112;2022-08-21T14:45:07;27.20;99.90
23143;DHT22;11740;51.168;4.112;2022-08-21T14:47:40;27.30;99.90
23143;DHT22;11740;51.168;4.112;2022-08-21T14:50:07;27.20;99.90
23143;DHT22;11740;51.168;4.112;2022-08-21T14:52:35;27.30;99.90
23143;DHT22;11740;51.168;4.112;2022-08-21T14:55:03;27.40;99.90
23143;DHT22;11740;51.168;4.112;2022-08-21T14:57:32;27.30;99.90
23143;DHT22;11740;51.168;4.112;2022-08-21T15:00:00;27.40;99.90
23143;DHT22;11740;51.168;4.112;2022-08-21T15:02:27;27.50;99.90
23143;DHT22;11740;51.168;4.112;2022-08-21T15:04:54;27.50;99.90
23143;DHT22;11740;51.168;4.112;2022-08-21T15:07:23;27.40;99.90
23143;DHT22;11740;51.168;4.112;2022-08-21T15:09:51;27.40;99.90
23143;DHT22;11740;51.168;4.112;2022-08-21T15:12:18;27.40;99.90
23143;DHT22;11740;51.168;4.112;2022-08-21T15:14:45;27.50;99.90
23143;DHT22;11740;51.168;4.112;2022-08-21T15:17:13;27.40;99.90
23143;DHT22;11740;51.168;4.112;2022-08-21T15:19:40;27.50;99.90
23143;DHT22;11740;51.168;4.112;2022-08-21T15:22:07;27.40;99.90
23143;DHT22;11740;51.168;4.112;2022-08-21T15:24:44;27.50;99.90
23143;DHT22;11740;51.168;4.112;2022-08-21T15:27:11;27.50;99.90
23143;DHT22;11740;51.168;4.112;2022-08-21T15:29:42;27.50;99.90
23143;DHT22;11740;51.168;4.112;2022-08-21T15:32:17;27.50;99.90
23143;DHT22;11740;51.168;4.112;2022-08-21T15:34:45;27.50;99.90
23143;DHT22;11740;51.168;4.112;2022-08-21T15:37:13;27.60;99.90
23143;DHT22;11740;51.168;4.112;2022-08-21T15:39:39;27.30;99.90
23143;DHT22;11740;51.168;4.112;2022-08-21T15:42:07;27.30;99.90
23143;DHT22;11740;51.168;4.112;2022-08-21T15:44:37;27.10;99.90
23143;DHT22;11740;51.168;4.112;2022-08-21T15:47:06;27.00;99.90
23143;DHT22;11740;51.168;4.112;2022-08-21T15:49:35;27.10;99.90
23143;DHT22;11740;51.168;4.112;2022-08-21T15:52:02;27.20;99.90
23143;DHT22;11740;51.168;4.112;2022-08-21T15:54:29;27.20;99.90
23143;DHT22;11740;51.168;4.112;2022-08-21T15:56:56;27.00;99.90
23143;DHT22;11740;51.168;4.112;2022-08-21T15:59:24;27.00;99.90
23143;DHT22;11740;51.168;4.112;2022-08-21T16:01:53;27.00;99.90
23143;DHT22;11740;51.168;4.112;2022-08-21T16:04:24;27.00;99.90
23143;DHT22;11740;51.168;4.112;2022-08-21T16:06:53;26.90;99.90
23143;DHT22;11740;51.168;4.112;2022-08-21T16:09:27;26.90;99.90
23143;DHT22;11740;51.168;4.112;2022-08-21T16:11:54;27.00;99.90
23143;DHT22;11740;51.168;4.112;2022-08-21T16:14:21;26.90;99.90
23143;DHT22;11740;51.168;4.112;2022-08-21T16:16:48;26.90;99.90
23143;DHT22;11740;51.168;4.112;2022-08-21T16:19:14;26.80;99.90
23143;DHT22;11740;51.168;4.112;2022-08-21T16:21:41;27.00;99.90
23143;DHT22;11740;51.168;4.112;2022-08-21T16:24:09;26.90;99.90
23143;DHT22;11740;51.168;4.112;2022-08-21T16:26:36;26.90;99.90
23143;DHT22;11740;51.168;4.112;2022-08-21T16:29:05;26.80;99.90
23143;DHT22;11740;51.168;4.112;2022-08-21T16:31:33;26.80;99.90
23143;DHT22;11740;51.168;4.112;2022-08-21T16:34:00;26.80;99.90
23143;DHT22;11740;51.168;4.112;2022-08-21T16:36:27;26.80;99.90
23143;DHT22;11740;51.168;4.112;2022-08-21T16:38:55;26.80;99.90
23143;DHT22;11740;51.168;4.112;2022-08-21T16:41:31;26.80;99.90
23143;DHT22;11740;51.168;4.112;2022-08-21T16:43:59;26.80;99.90
23143;DHT22;11740;51.168;4.112;2022-08-21T16:46:28;26.70;99.90
23143;DHT22;11740;51.168;4.112;2022-08-21T16:48:56;26.70;99.90
23143;DHT22;11740;51.168;4.112;2022-08-21T16:51:23;26.80;99.90
23143;DHT22;11740;51.168;4.112;2022-08-21T16:53:53;26.80;99.90
23143;DHT22;11740;51.168;4.112;2022-08-21T16:56:19;26.80;99.90
23143;DHT22;11740;51.168;4.112;2022-08-21T16:58:47;26.80;99.90
23143;DHT22;11740;51.168;4.112;2022-08-21T17:01:15;26.80;99.90
23143;DHT22;11740;51.168;4.112;2022-08-21T17:03:46;26.70;99.90
23143;DHT22;11740;51.168;4.112;2022-08-21T17:06:14;26.70;99.90
23143;DHT22;11740;51.168;4.112;2022-08-21T17:08:41;26.60;99.90
23143;DHT22;11740;51.168;4.112;2022-08-21T17:11:28;26.60;99.90
23143;DHT22;11740;51.168;4.112;2022-08-21T17:14:05;26.60;99.90
23143;DHT22;11740;51.168;4.112;2022-08-21T17:16:34;26.60;99.90
23143;DHT22;11740;51.168;4.112;2022-08-21T17:19:01;26.60;99.90
23143;DHT22;11740;51.168;4.112;2022-08-21T17:21:31;26.60;99.90
23143;DHT22;11740;51.168;4.112;2022-08-21T17:23:58;26.40;99.90
23143;DHT22;11740;51.168;4.112;2022-08-21T17:26:25;26.50;99.90
23143;DHT22;11740;51.168;4.112;2022-08-21T17:28:52;26.30;99.90
23143;DHT22;11740;51.168;4.112;2022-08-21T17:31:20;26.30;99.90
23143;DHT22;11740;51.168;4.112;2022-08-21T17:33:48;26.20;99.90
23143;DHT22;11740;51.168;4.112;2022-08-21T17:36:26;26.20;99.90
23143;DHT22;11740;51.168;4.112;2022-08-21T17:38:55;26.20;99.90